Time;durP1;ratioP1;P1;durP2;ratioP2;P2;SDS_P1;SDS_P2;PMS_P1;PMS_P2;Temp;Humidity;BMP_temperature;BMP_pressure;BME280_temperature;BME280_humidity;BME280_pressure;Samples;Min_cycle;Max_cycle;Signal;HPM_P1;HPM_P2
2023/09/13 00:01:29;;;;;;;2.40;0.70;;;15.30;99.90;;;;;;5035813;28;20041;-59
2023/09/13 00:03:58;;;;;;;1.92;0.70;;;15.30;99.90;;;;;;5036578;28;20041;-57
2023/09/13 00:06:25;;;;;;;2.45;0.70;;;15.30;99.90;;;;;;5036537;28;20117;-54
2023/09/13 00:08:54;;;;;;;4.57;0.80;;;15.30;99.90;;;;;;5036699;28;20052;-58
2023/09/13 00:11:21;;;;;;;1.90;0.60;;;15.30;99.90;;;;;;5036273;28;20037;-60
2023/09/13 00:13:48;;;;;;;0.80;0.43;;;15.30;99.90;;;;;;5036056;28;20072;-58
2023/09/13 00:16:15;;;;;;;3.13;0.70;;;15.30;99.90;;;;;;5036481;28;20041;-59
2023/09/13 00:18:42;;;;;;;1.63;0.45;;;15.30;99.90;;;;;;5036761;28;20049;-58
2023/09/13 00:21:08;;;;;;;2.53;0.50;;;15.30;99.90;;;;;;5036337;28;20044;-55
2023/09/13 00:23:35;;;;;;;2.50;0.60;;;15.30;99.90;;;;;;5035881;28;20442;-59
2023/09/13 00:26:02;;;;;;;2.47;0.60;;;15.30;99.90;;;;;;5036113;28;20076;-58
2023/09/13 00:28:32;;;;;;;4.13;0.82;;;15.30;99.90;;;;;;5035060;28;20469;-56
2023/09/13 00:30:58;;;;;;;3.35;0.77;;;15.30;99.90;;;;;;5036222;28;20042;-58
2023/09/13 00:33:26;;;;;;;2.53;0.60;;;15.40;99.90;;;;;;5035016;28;20379;-59
2023/09/13 00:35:52;;;;;;;1.30;0.68;;;15.40;99.90;;;;;;5035600;28;20041;-56
2023/09/13 00:38:19;;;;;;;1.42;0.70;;;15.30;99.90;;;;;;5035786;28;20122;-56
2023/09/13 00:40:46;;;;;;;1.60;0.70;;;15.30;99.90;;;;;;5036224;28;20068;-59
2023/09/13 00:43:13;;;;;;;2.65;1.20;;;15.30;99.90;;;;;;5035887;28;20120;-59
2023/09/13 00:45:40;;;;;;;2.35;0.82;;;15.40;99.90;;;;;;5035974;28;20046;-55
2023/09/13 00:48:07;;;;;;;2.28;0.75;;;15.40;99.90;;;;;;5033553;28;20072;-58
2023/09/13 00:50:35;;;;;;;2.03;0.70;;;15.40;99.90;;;;;;5033179;28;20072;-56
2023/09/13 00:53:18;;;;;;;3.40;0.67;;;15.40;99.90;;;;;;5035769;28;20484;-59
2023/09/13 00:55:45;;;;;;;4.53;0.60;;;15.30;99.90;;;;;;5034689;28;20136;-56
2023/09/13 00:58:13;;;;;;;2.90;0.85;;;15.40;99.90;;;;;;5034949;28;20060;-58
2023/09/13 01:00:39;;;;;;;2.85;0.80;;;15.40;99.90;;;;;;5035422;28;20080;-60
2023/09/13 01:03:06;;;;;;;1.80;0.60;;;15.40;99.90;;;;;;5035651;28;20124;-58
2023/09/13 01:05:33;;;;;;;3.38;0.88;;;15.40;99.90;;;;;;5035123;28;20100;-58
2023/09/13 01:08:00;;;;;;;3.95;0.77;;;15.40;99.90;;;;;;5035317;28;20057;-58
2023/09/13 01:10:27;;;;;;;4.03;0.90;;;15.50;99.90;;;;;;5033709;28;20057;-57
2023/09/13 01:12:54;;;;;;;3.45;1.38;;;15.50;99.90;;;;;;5035431;28;20051;-60
2023/09/13 01:15:23;;;;;;;2.63;0.90;;;15.50;99.90;;;;;;5034191;28;20065;-58
2023/09/13 01:17:49;;;;;;;2.40;0.70;;;15.40;99.90;;;;;;5035272;28;20479;-58
2023/09/13 01:20:18;;;;;;;3.83;0.90;;;15.40;99.90;;;;;;5035443;28;20044;-59
2023/09/13 01:22:45;;;;;;;2.72;0.90;;;15.40;99.90;;;;;;5034541;28;20374;-57
2023/09/13 01:25:12;;;;;;;3.35;1.10;;;15.40;99.90;;;;;;5034126;28;20046;-57
2023/09/13 01:27:39;;;;;;;2.60;0.80;;;15.40;99.90;;;;;;5033816;28;20041;-58
2023/09/13 01:30:07;;;;;;;5.00;0.80;;;15.40;99.90;;;;;;5035024;28;20037;-61
2023/09/13 01:32:34;;;;;;;3.20;1.00;;;15.40;99.90;;;;;;5034725;28;20091;-59
2023/09/13 01:35:02;;;;;;;3.25;0.90;;;15.50;99.90;;;;;;5033370;28;20099;-61
2023/09/13 01:37:29;;;;;;;3.35;0.90;;;15.40;99.90;;;;;;5035074;28;20041;-61
2023/09/13 01:39:56;;;;;;;2.38;0.90;;;15.50;99.90;;;;;;5035355;28;20045;-58
2023/09/13 01:42:22;;;;;;;5.88;1.10;;;15.40;99.90;;;;;;5033671;28;20060;-56
2023/09/13 01:44:50;;;;;;;2.58;1.00;;;15.40;99.90;;;;;;5034163;28;20049;-59
2023/09/13 01:47:17;;;;;;;3.10;1.10;;;15.40;99.90;;;;;;5034176;28;20049;-58
2023/09/13 01:49:44;;;;;;;3.45;1.08;;;15.40;99.90;;;;;;5034605;28;20040;-57
2023/09/13 01:52:10;;;;;;;2.55;1.10;;;15.40;99.90;;;;;;5034687;28;20048;-57
2023/09/13 01:54:37;;;;;;;3.70;1.27;;;15.50;99.90;;;;;;5034683;28;20033;-57
2023/09/13 01:57:04;;;;;;;7.38;1.70;;;15.50;99.90;;;;;;5033557;28;20034;-59
2023/09/13 01:59:31;;;;;;;4.78;1.60;;;15.50;99.90;;;;;;5033035;28;20049;-55
2023/09/13 02:01:57;;;;;;;4.82;1.52;;;15.50;99.90;;;;;;5032899;28;20045;-60
2023/09/13 02:04:29;;;;;;;5.05;1.60;;;15.40;99.90;;;;;;5034491;28;20111;-54
2023/09/13 02:06:56;;;;;;;4.15;1.70;;;15.40;99.90;;;;;;5034306;28;20089;-57
2023/09/13 02:09:22;;;;;;;3.70;1.52;;;15.40;99.90;;;;;;5033488;28;20355;-57
2023/09/13 02:11:49;;;;;;;3.78;1.75;;;15.30;99.90;;;;;;5034318;28;20060;-60
2023/09/13 02:14:16;;;;;;;3.97;1.60;;;15.30;99.90;;;;;;5034003;28;20060;-56
2023/09/13 02:16:43;;;;;;;5.55;1.90;;;15.40;99.90;;;;;;5032724;28;20041;-60
2023/09/13 02:19:10;;;;;;;5.95;1.80;;;15.30;99.90;;;;;;5033250;28;20109;-56
2023/09/13 02:21:37;;;;;;;3.83;1.80;;;15.30;99.90;;;;;;5033794;28;20054;-58
2023/09/13 02:24:04;;;;;;;7.15;2.00;;;15.30;99.90;;;;;;5032744;28;20038;-55
2023/09/13 02:26:31;;;;;;;3.88;1.90;;;15.30;99.90;;;;;;5034203;28;20060;-56
2023/09/13 02:28:58;;;;;;;8.85;2.38;;;15.30;99.90;;;;;;5033722;28;20037;-57
2023/09/13 02:31:25;;;;;;;4.40;2.42;;;15.30;99.90;;;;;;5015064;28;20153;-57
2023/09/13 02:33:53;;;;;;;5.68;2.10;;;15.20;99.90;;;;;;5032396;28;20099;-56
2023/09/13 02:36:20;;;;;;;4.20;2.10;;;15.20;99.90;;;;;;5032332;28;20045;-60
2023/09/13 02:38:47;;;;;;;7.13;2.58;;;15.20;99.90;;;;;;5033704;28;20059;-60
2023/09/13 02:41:14;;;;;;;8.65;2.67;;;15.20;99.90;;;;;;5034001;28;20045;-57
2023/09/13 02:43:40;;;;;;;7.88;1.98;;;15.10;99.90;;;;;;5031836;28;20056;-58
2023/09/13 02:46:08;;;;;;;8.90;2.13;;;15.00;99.90;;;;;;5034047;28;20385;-60
2023/09/13 02:48:35;;;;;;;5.47;2.45;;;15.00;99.90;;;;;;5033581;28;20084;-58
2023/09/13 02:51:02;;;;;;;7.82;2.15;;;15.10;99.90;;;;;;5033640;28;20040;-60
2023/09/13 02:53:30;;;;;;;9.32;2.55;;;15.00;99.90;;;;;;5031530;28;20034;-59
2023/09/13 02:55:57;;;;;;;6.35;2.30;;;15.10;99.90;;;;;;5033084;28;20037;-56
2023/09/13 02:58:24;;;;;;;8.30;2.17;;;15.10;99.90;;;;;;5031985;28;20514;-57
2023/09/13 03:00:54;;;;;;;6.18;2.30;;;15.10;99.90;;;;;;5032243;28;20050;-61
2023/09/13 03:03:21;;;;;;;5.50;2.17;;;15.10;99.90;;;;;;5032063;28;20115;-56
2023/09/13 03:05:49;;;;;;;6.32;2.05;;;15.10;99.90;;;;;;5031255;28;20049;-60
2023/09/13 03:08:16;;;;;;;6.28;1.90;;;15.10;99.90;;;;;;5031898;28;20045;-57
2023/09/13 03:10:43;;;;;;;7.10;2.05;;;15.10;99.90;;;;;;5032399;28;20065;-57
2023/09/13 03:13:10;;;;;;;6.03;2.13;;;15.10;99.90;;;;;;5030949;28;20045;-56
2023/09/13 03:15:37;;;;;;;6.53;1.85;;;15.10;99.90;;;;;;5031909;28;20046;-58
2023/09/13 03:18:04;;;;;;;7.15;1.98;;;15.20;99.90;;;;;;5030897;28;20045;-56
2023/09/13 03:20:31;;;;;;;6.97;2.15;;;15.10;99.90;;;;;;5032349;28;20396;-59
2023/09/13 03:22:57;;;;;;;5.30;2.20;;;15.10;99.90;;;;;;5033238;28;20041;-59
2023/09/13 03:25:24;;;;;;;7.47;2.15;;;15.10;99.90;;;;;;5031944;28;20069;-59
2023/09/13 03:27:51;;;;;;;7.05;2.33;;;15.10;99.90;;;;;;5032494;28;20053;-56
2023/09/13 03:30:18;;;;;;;6.30;2.10;;;15.10;99.90;;;;;;5033136;28;20037;-56
2023/09/13 03:32:46;;;;;;;8.60;2.17;;;15.10;99.90;;;;;;5032004;28;20425;-58
2023/09/13 03:35:13;;;;;;;8.07;2.33;;;15.10;99.90;;;;;;5032354;28;20048;-60
2023/09/13 03:37:40;;;;;;;8.68;2.17;;;15.10;99.90;;;;;;5031591;28;20085;-60
2023/09/13 03:40:07;;;;;;;7.55;2.17;;;15.10;99.90;;;;;;5031157;28;20048;-56
2023/09/13 03:42:35;;;;;;;5.68;2.10;;;15.10;99.90;;;;;;5032878;28;20057;-57
2023/09/13 03:45:02;;;;;;;9.48;2.47;;;15.10;99.90;;;;;;5031793;28;20095;-60
2023/09/13 03:47:29;;;;;;;7.45;2.28;;;15.10;99.90;;;;;;5031944;28;20327;-57
2023/09/13 03:49:56;;;;;;;7.28;2.28;;;15.10;99.90;;;;;;5031517;28;20049;-55
2023/09/13 03:52:23;;;;;;;7.30;2.50;;;15.10;99.90;;;;;;5030896;28;20042;-58
2023/09/13 03:54:50;;;;;;;5.95;2.30;;;15.10;99.90;;;;;;5031687;28;20045;-59
2023/09/13 03:57:17;;;;;;;8.00;2.45;;;15.10;99.90;;;;;;5032731;28;20041;-58
2023/09/13 03:59:44;;;;;;;6.55;1.90;;;15.10;99.90;;;;;;5032708;28;20060;-59
2023/09/13 04:02:11;;;;;;;6.25;2.13;;;15.10;99.90;;;;;;5031015;28;20041;-59
2023/09/13 04:04:37;;;;;;;6.95;2.30;;;15.10;99.90;;;;;;5030858;28;20053;-57
2023/09/13 04:07:05;;;;;;;7.50;2.17;;;15.10;99.90;;;;;;5031314;28;20041;-58
2023/09/13 04:09:32;;;;;;;6.70;2.33;;;15.10;99.90;;;;;;5031402;28;20077;-54
2023/09/13 04:11:59;;;;;;;8.13;2.38;;;15.10;99.90;;;;;;5032989;28;20068;-57
2023/09/13 04:14:26;;;;;;;7.20;1.90;;;15.10;99.90;;;;;;5032174;28;20443;-56
2023/09/13 04:16:53;;;;;;;5.75;1.85;;;15.10;99.90;;;;;;5031575;28;20052;-57
2023/09/13 04:19:20;;;;;;;7.07;2.05;;;15.10;99.90;;;;;;5031403;28;20053;-57
2023/09/13 04:21:47;;;;;;;5.93;2.20;;;15.10;99.90;;;;;;5031477;28;20049;-59
2023/09/13 04:24:14;;;;;;;5.97;2.00;;;15.20;99.90;;;;;;5031485;28;20042;-56
2023/09/13 04:26:41;;;;;;;6.47;2.08;;;15.20;99.90;;;;;;5035373;28;20048;-57
2023/09/13 04:29:08;;;;;;;7.18;1.88;;;15.20;99.90;;;;;;5034818;28;20033;-59
2023/09/13 04:31:34;;;;;;;6.18;1.77;;;15.10;99.90;;;;;;5034933;28;20048;-59
2023/09/13 04:34:03;;;;;;;6.35;1.88;;;15.10;99.90;;;;;;5036273;28;20113;-57
2023/09/13 04:36:33;;;;;;;4.93;1.60;;;15.10;99.90;;;;;;5034796;28;20044;-56
2023/09/13 04:39:00;;;;;;;6.75;1.73;;;15.10;99.90;;;;;;5034293;28;20050;-58
2023/09/13 04:41:27;;;;;;;6.15;1.85;;;15.10;99.90;;;;;;5035932;28;20052;-58
2023/09/13 04:43:54;;;;;;;6.85;2.05;;;15.10;99.90;;;;;;5034641;28;20049;-59
2023/09/13 04:46:21;;;;;;;6.97;1.63;;;15.10;99.90;;;;;;5036224;28;20531;-57
2023/09/13 04:48:48;;;;;;;8.50;2.45;;;15.10;99.90;;;;;;5033673;28;20069;-55
2023/09/13 04:51:15;;;;;;;8.25;2.05;;;15.10;99.90;;;;;;5034079;28;20477;-58
2023/09/13 04:53:42;;;;;;;8.88;1.90;;;15.10;99.90;;;;;;5034336;28;20052;-57
2023/09/13 04:56:09;;;;;;;7.50;2.00;;;15.20;99.90;;;;;;5035896;28;20354;-58
2023/09/13 04:58:41;;;;;;;5.40;1.80;;;15.20;99.90;;;;;;5034042;28;20465;-59
2023/09/13 05:01:08;;;;;;;5.75;1.88;;;15.20;99.90;;;;;;5016569;28;20048;-55
2023/09/13 05:03:35;;;;;;;8.65;1.98;;;15.20;99.90;;;;;;5034386;28;20128;-57
2023/09/13 05:06:02;;;;;;;5.00;1.80;;;15.20;99.90;;;;;;5035606;28;20038;-53
2023/09/13 05:08:33;;;;;;;9.40;2.17;;;15.20;99.90;;;;;;5035451;28;20038;-51
2023/09/13 05:11:00;;;;;;;6.93;2.00;;;15.20;99.90;;;;;;5035508;28;20038;-55
2023/09/13 05:13:26;;;;;;;9.13;2.60;;;15.20;99.90;;;;;;5034973;28;20109;-54
2023/09/13 05:15:53;;;;;;;4.55;1.90;;;15.20;99.90;;;;;;5034914;28;20093;-58
2023/09/13 05:18:20;;;;;;;8.52;2.40;;;15.20;99.90;;;;;;5035153;28;20069;-57
2023/09/13 05:20:47;;;;;;;8.10;1.98;;;15.20;99.90;;;;;;5035209;28;20046;-57
2023/09/13 05:23:14;;;;;;;8.10;2.03;;;15.20;99.90;;;;;;5034943;28;20038;-57
2023/09/13 05:25:40;;;;;;;8.30;2.53;;;15.20;99.90;;;;;;5034964;28;20042;-57
2023/09/13 05:28:08;;;;;;;6.05;1.83;;;15.20;99.90;;;;;;5034992;28;20041;-53
2023/09/13 05:30:34;;;;;;;10.68;2.13;;;15.20;99.90;;;;;;5035188;28;20435;-59
2023/09/13 05:33:01;;;;;;;7.30;2.00;;;15.20;99.90;;;;;;5034911;28;20037;-58
2023/09/13 05:35:28;;;;;;;8.75;2.05;;;15.20;99.90;;;;;;5034145;28;20092;-58
2023/09/13 05:37:55;;;;;;;10.18;2.28;;;15.20;99.90;;;;;;5034054;28;20033;-56
2023/09/13 05:40:22;;;;;;;6.35;1.92;;;15.10;99.90;;;;;;5035068;28;20132;-55
2023/09/13 05:42:48;;;;;;;7.18;2.42;;;15.10;99.90;;;;;;5033699;28;20037;-58
2023/09/13 05:45:15;;;;;;;12.38;2.83;;;15.20;99.90;;;;;;5034875;28;20515;-57
2023/09/13 05:47:42;;;;;;;6.78;1.83;;;15.20;99.90;;;;;;5032440;28;20059;-57
2023/09/13 05:50:09;;;;;;;6.97;2.45;;;15.20;99.90;;;;;;5034758;28;20095;-60
2023/09/13 05:52:39;;;;;;;7.40;2.50;;;15.20;99.90;;;;;;5034671;28;20045;-58
2023/09/13 05:55:05;;;;;;;8.48;2.45;;;15.30;99.90;;;;;;5034823;28;20041;-55
2023/09/13 05:57:32;;;;;;;9.95;2.70;;;15.20;99.90;;;;;;5033906;28;20113;-54
2023/09/13 05:59:59;;;;;;;7.10;3.10;;;15.20;99.90;;;;;;5034040;28;20104;-57
2023/09/13 06:02:26;;;;;;;10.75;2.78;;;15.10;99.90;;;;;;5034507;28;20069;-59
2023/09/13 06:04:52;;;;;;;7.63;2.15;;;15.10;99.90;;;;;;5034676;28;20071;-56
2023/09/13 06:07:19;;;;;;;7.90;2.50;;;15.10;99.90;;;;;;5034351;28;20041;-55
2023/09/13 06:09:46;;;;;;;9.35;2.85;;;15.10;99.90;;;;;;5033615;28;20114;-57
2023/09/13 06:12:13;;;;;;;7.45;2.45;;;15.10;99.90;;;;;;5034352;28;20378;-55
2023/09/13 06:14:40;;;;;;;10.90;2.70;;;15.10;99.90;;;;;;5034281;28;20416;-54
2023/09/13 06:17:07;;;;;;;9.90;2.65;;;15.20;99.90;;;;;;5033817;28;20045;-55
2023/09/13 06:19:33;;;;;;;9.13;2.33;;;15.20;99.90;;;;;;5033166;28;20046;-57
2023/09/13 06:22:02;;;;;;;7.93;2.70;;;15.30;99.90;;;;;;5034427;28;20045;-56
2023/09/13 06:24:29;;;;;;;12.25;2.72;;;15.30;99.90;;;;;;5033744;28;20208;-58
2023/09/13 06:26:56;;;;;;;11.30;2.95;;;15.30;99.90;;;;;;5033426;28;20061;-56
2023/09/13 06:29:23;;;;;;;8.60;2.83;;;15.20;99.90;;;;;;5033883;28;20065;-57
2023/09/13 06:31:50;;;;;;;8.50;2.67;;;15.20;99.90;;;;;;5034148;28;20120;-55
2023/09/13 06:34:31;;;;;;;13.63;2.72;;;15.10;99.90;;;;;;5018027;28;20135;-56
2023/09/13 06:36:58;;;;;;;11.25;2.70;;;15.10;99.90;;;;;;5033549;28;20125;-56
2023/09/13 06:39:26;;;;;;;10.18;2.95;;;15.10;99.90;;;;;;5034115;28;20069;-56
2023/09/13 06:41:53;;;;;;;7.25;2.42;;;15.10;99.90;;;;;;5033335;28;20049;-60
2023/09/13 06:44:21;;;;;;;9.88;2.83;;;15.10;99.90;;;;;;5033944;28;20398;-58
2023/09/13 06:47:07;;;;;;;11.02;2.85;;;15.10;99.90;;;;;;5033738;28;20547;-57
2023/09/13 06:49:35;;;;;;;11.32;2.80;;;15.10;99.90;;;;;;5033264;28;20050;-56
2023/09/13 06:52:03;;;;;;;9.63;3.00;;;15.00;99.90;;;;;;5033218;28;20067;-58
2023/09/13 06:54:32;;;;;;;10.77;2.92;;;15.00;99.90;;;;;;5033706;28;20037;-57
2023/09/13 06:57:04;;;;;;;7.00;2.60;;;15.00;99.90;;;;;;5033508;28;20042;-61
2023/09/13 06:59:31;;;;;;;8.60;2.70;;;15.10;99.90;;;;;;5033027;28;20057;-57
2023/09/13 07:02:10;;;;;;;8.00;2.70;;;15.10;99.90;;;;;;5033315;28;20163;-55
2023/09/13 07:04:57;;;;;;;11.25;3.47;;;15.20;99.90;;;;;;5033665;28;20103;-58
2023/09/13 07:07:27;;;;;;;12.05;2.80;;;15.20;99.90;;;;;;5033302;28;20041;-54
2023/09/13 07:09:54;;;;;;;11.98;3.30;;;15.20;99.90;;;;;;5033482;28;20373;-60
2023/09/13 07:12:20;;;;;;;9.38;2.72;;;15.20;99.90;;;;;;5032965;28;20042;-52
2023/09/13 07:14:53;;;;;;;8.60;3.20;;;15.20;99.90;;;;;;5033338;28;20057;-58
2023/09/13 07:17:20;;;;;;;8.40;2.90;;;15.30;99.90;;;;;;5033228;28;20052;-59
2023/09/13 07:19:47;;;;;;;9.25;2.72;;;15.30;99.90;;;;;;5032738;28;20041;-57
2023/09/13 07:22:14;;;;;;;11.63;2.95;;;15.40;99.90;;;;;;5033130;28;20041;-55
2023/09/13 07:24:41;;;;;;;8.82;2.85;;;15.40;99.90;;;;;;5033259;28;20045;-58
2023/09/13 07:27:07;;;;;;;10.20;2.60;;;15.50;99.90;;;;;;5033083;28;20045;-57
2023/09/13 07:29:35;;;;;;;11.48;3.72;;;15.60;99.90;;;;;;5032885;28;20442;-55
2023/09/13 07:32:02;;;;;;;12.10;3.40;;;15.60;99.90;;;;;;5032600;28;20033;-55
2023/09/13 07:34:29;;;;;;;14.90;2.90;;;15.60;99.90;;;;;;5033139;28;20040;-56
2023/09/13 07:36:58;;;;;;;13.27;3.45;;;15.70;99.90;;;;;;5033230;28;20405;-54
2023/09/13 07:39:25;;;;;;;8.20;2.60;;;15.80;99.90;;;;;;5031759;28;20129;-56
2023/09/13 07:41:52;;;;;;;10.60;2.80;;;15.70;99.90;;;;;;5033008;28;20053;-56
2023/09/13 07:44:18;;;;;;;9.65;3.05;;;15.70;99.90;;;;;;5032690;28;20053;-58
2023/09/13 07:46:46;;;;;;;11.10;3.22;;;15.70;99.90;;;;;;5032696;28;20084;-60
2023/09/13 07:49:13;;;;;;;8.63;2.78;;;15.70;99.90;;;;;;5032865;28;20045;-52
2023/09/13 07:51:40;;;;;;;10.45;3.47;;;15.80;99.90;;;;;;5032813;28;20069;-58
2023/09/13 07:54:07;;;;;;;10.15;2.85;;;15.80;99.90;;;;;;5032629;28;20041;-52
2023/09/13 07:56:37;;;;;;;8.07;3.20;;;15.90;99.90;;;;;;5032595;28;20065;-54
2023/09/13 07:59:04;;;;;;;11.65;3.08;;;15.90;99.90;;;;;;5032556;28;20057;-58
2023/09/13 08:01:31;;;;;;;10.00;3.10;;;16.00;99.90;;;;;;5036588;28;20050;-57
2023/09/13 08:03:58;;;;;;;9.05;2.80;;;16.00;99.90;;;;;;5036457;28;20037;-52
2023/09/13 08:06:24;;;;;;;9.00;3.00;;;16.10;99.90;;;;;;5036451;28;20069;-54
2023/09/13 08:08:52;;;;;;;13.15;3.13;;;16.20;99.90;;;;;;5036702;28;20060;-54
2023/09/13 08:11:19;;;;;;;13.38;3.20;;;16.30;99.90;;;;;;5036651;28;20544;-56
2023/09/13 08:13:46;;;;;;;9.13;2.90;;;16.40;99.90;;;;;;5036281;28;20045;-57
2023/09/13 08:16:12;;;;;;;8.35;2.88;;;16.50;99.90;;;;;;5035820;28;20037;-53
2023/09/13 08:18:39;;;;;;;9.57;2.97;;;16.50;99.90;;;;;;5036271;28;20127;-55
2023/09/13 08:21:07;;;;;;;7.57;2.42;;;16.60;99.90;;;;;;5036560;28;20056;-58
2023/09/13 08:23:35;;;;;;;11.35;3.05;;;16.70;99.90;;;;;;5036683;28;20053;-60
2023/09/13 08:26:02;;;;;;;9.40;2.70;;;16.70;99.90;;;;;;5036460;28;20046;-57
2023/09/13 08:28:49;;;;;;;8.85;2.60;;;16.70;99.90;;;;;;5035304;28;20053;-57
2023/09/13 08:31:17;;;;;;;12.02;2.75;;;16.70;99.90;;;;;;5035902;28;20046;-60
2023/09/13 08:33:46;;;;;;;10.93;2.58;;;16.70;99.90;;;;;;5035670;28;20403;-60
2023/09/13 08:36:13;;;;;;;8.27;2.50;;;16.80;99.90;;;;;;5035114;28;20038;-54
2023/09/13 08:38:40;;;;;;;11.38;2.75;;;16.90;99.90;;;;;;5034751;28;20048;-58
2023/09/13 08:41:07;;;;;;;12.25;2.67;;;16.90;99.90;;;;;;5035060;28;20481;-54
2023/09/13 08:43:34;;;;;;;9.40;2.40;;;17.10;99.90;;;;;;5020126;28;20505;-55
2023/09/13 08:46:01;;;;;;;9.05;2.50;;;17.20;99.90;;;;;;5034979;28;20457;-51
2023/09/13 08:48:28;;;;;;;11.20;2.80;;;17.30;99.90;;;;;;5035213;28;20045;-56
2023/09/13 08:50:54;;;;;;;10.82;2.70;;;17.30;99.90;;;;;;5034829;28;20342;-57
2023/09/13 08:53:21;;;;;;;8.73;2.78;;;17.30;99.90;;;;;;5034788;28;20043;-52
2023/09/13 08:55:48;;;;;;;7.72;2.55;;;17.30;99.90;;;;;;5028371;28;20129;-55
2023/09/13 08:58:15;;;;;;;7.45;2.90;;;17.30;99.90;;;;;;5019631;28;20085;-58
2023/09/13 09:00:42;;;;;;;10.23;3.17;;;17.30;99.90;;;;;;5035012;28;20056;-55
2023/09/13 09:03:09;;;;;;;11.70;2.70;;;17.30;99.90;;;;;;5035188;28;20049;-58
2023/09/13 09:05:36;;;;;;;8.45;2.47;;;17.40;99.90;;;;;;5035176;28;20549;-58
2023/09/13 09:08:03;;;;;;;11.18;2.72;;;17.40;99.90;;;;;;5035172;28;20120;-55
2023/09/13 09:10:30;;;;;;;7.35;2.38;;;17.50;99.90;;;;;;5034264;28;20485;-53
2023/09/13 09:12:57;;;;;;;9.40;3.08;;;17.50;99.90;;;;;;5033474;28;20541;-56
2023/09/13 09:15:23;;;;;;;7.28;2.55;;;17.60;99.90;;;;;;5035183;28;20477;-56
2023/09/13 09:17:51;;;;;;;7.43;2.50;;;17.70;99.90;;;;;;5035115;28;20049;-58
2023/09/13 09:20:17;;;;;;;8.07;2.17;;;17.70;99.90;;;;;;5034984;28;20049;-55
2023/09/13 09:22:44;;;;;;;11.65;2.80;;;17.60;99.90;;;;;;5034250;28;20076;-59
2023/09/13 09:25:11;;;;;;;7.97;2.92;;;17.50;99.90;;;;;;5034630;28;20052;-58
2023/09/13 09:27:38;;;;;;;10.23;2.17;;;17.60;99.90;;;;;;5034529;28;20041;-57
2023/09/13 09:30:05;;;;;;;7.72;2.92;;;17.70;99.90;;;;;;5034746;28;20052;-58
2023/09/13 09:32:32;;;;;;;8.82;2.90;;;17.80;99.90;;;;;;5034525;28;20038;-59
2023/09/13 09:34:59;;;;;;;6.50;2.92;;;18.00;99.90;;;;;;5033044;28;20095;-56
2023/09/13 09:37:26;;;;;;;8.88;2.58;;;18.00;99.90;;;;;;5034267;28;20406;-59
2023/09/13 09:39:53;;;;;;;7.68;2.67;;;18.20;99.90;;;;;;5033966;28;20059;-54
2023/09/13 09:42:19;;;;;;;8.25;2.53;;;18.30;99.90;;;;;;5034602;28;20049;-60
2023/09/13 09:44:46;;;;;;;10.10;2.78;;;18.40;99.90;;;;;;5033731;28;20933;-57
2023/09/13 09:47:13;;;;;;;7.40;2.13;;;18.40;99.90;;;;;;5034098;28;20049;-53
2023/09/13 09:49:40;;;;;;;11.82;2.67;;;18.40;99.90;;;;;;5034200;28;20495;-58
2023/09/13 09:52:07;;;;;;;6.20;2.70;;;18.40;99.90;;;;;;5033559;28;20037;-57
2023/09/13 09:54:34;;;;;;;6.13;2.30;;;18.50;99.90;;;;;;5032962;28;20034;-58
2023/09/13 09:57:01;;;;;;;8.05;1.98;;;18.60;99.90;;;;;;5032505;28;20033;-59
2023/09/13 09:59:28;;;;;;;6.40;2.10;;;18.60;99.90;;;;;;5032309;28;20093;-59
2023/09/13 10:01:55;;;;;;;7.95;2.42;;;18.60;99.90;;;;;;5032926;28;20117;-56
2023/09/13 10:04:22;;;;;;;10.10;2.50;;;18.60;99.90;;;;;;5032620;28;20573;-59
2023/09/13 10:06:49;;;;;;;7.35;2.33;;;18.60;99.90;;;;;;5032522;28;20056;-57
2023/09/13 10:09:16;;;;;;;6.68;2.05;;;18.70;99.90;;;;;;5031802;28;20042;-58
2023/09/13 10:11:43;;;;;;;6.53;1.95;;;18.80;99.90;;;;;;5033856;28;20480;-56
2023/09/13 10:14:09;;;;;;;7.95;2.10;;;18.80;99.90;;;;;;5034339;28;20038;-59
2023/09/13 10:16:36;;;;;;;7.70;2.25;;;19.00;99.90;;;;;;5034018;28;20034;-56
2023/09/13 10:19:04;;;;;;;6.80;2.25;;;18.90;99.90;;;;;;5034189;28;20045;-57
2023/09/13 10:21:32;;;;;;;5.90;2.10;;;18.90;99.90;;;;;;5033161;28;20047;-59
2023/09/13 10:23:59;;;;;;;8.73;2.22;;;19.00;99.90;;;;;;5033654;28;20041;-59
2023/09/13 10:26:26;;;;;;;6.85;1.95;;;19.00;99.90;;;;;;5033646;28;20073;-57
2023/09/13 10:28:54;;;;;;;6.97;2.25;;;19.10;99.90;;;;;;5033510;28;20042;-53
2023/09/13 10:31:21;;;;;;;7.15;2.70;;;19.20;99.90;;;;;;5033710;28;20034;-59
2023/09/13 10:33:48;;;;;;;8.05;2.40;;;19.30;99.90;;;;;;5032063;28;20092;-57
2023/09/13 10:36:14;;;;;;;6.07;2.30;;;19.20;99.90;;;;;;5032964;28;20038;-59
2023/09/13 10:38:41;;;;;;;6.30;2.35;;;19.20;99.90;;;;;;5033364;28;20045;-57
2023/09/13 10:41:08;;;;;;;5.32;1.98;;;19.30;99.90;;;;;;5033551;28;20068;-58
2023/09/13 10:43:35;;;;;;;5.72;2.03;;;19.40;99.90;;;;;;5033563;28;20045;-59
2023/09/13 10:46:02;;;;;;;7.00;2.22;;;19.50;99.90;;;;;;5033431;28;20049;-59
2023/09/13 10:48:29;;;;;;;6.18;2.40;;;19.70;99.90;;;;;;5033094;28;20042;-57
2023/09/13 10:50:56;;;;;;;7.07;2.30;;;19.80;99.90;;;;;;5032556;28;20121;-55
2023/09/13 10:53:23;;;;;;;9.05;2.40;;;19.90;99.90;;;;;;5033397;28;20034;-56
2023/09/13 10:55:50;;;;;;;7.05;2.53;;;19.80;99.90;;;;;;5032396;28;20044;-54
2023/09/13 10:58:20;;;;;;;6.85;2.40;;;19.80;99.90;;;;;;5032922;28;20059;-59
2023/09/13 11:00:47;;;;;;;7.55;2.70;;;19.80;99.50;;;;;;5033367;28;20451;-59
2023/09/13 11:03:14;;;;;;;7.97;2.53;;;19.80;99.50;;;;;;5033055;28;20512;-55
2023/09/13 11:05:41;;;;;;;6.53;2.40;;;19.80;99.40;;;;;;5033163;28;20052;-60
2023/09/13 11:08:11;;;;;;;8.60;2.70;;;19.70;99.60;;;;;;5032485;28;20465;-60
2023/09/13 11:10:38;;;;;;;8.02;2.70;;;19.70;99.50;;;;;;5033263;28;20041;-59
2023/09/13 11:13:05;;;;;;;10.35;2.55;;;19.60;99.50;;;;;;5033128;28;20041;-54
2023/09/13 11:15:32;;;;;;;8.57;2.78;;;19.60;99.50;;;;;;5032979;28;20033;-57
2023/09/13 11:17:59;;;;;;;8.63;2.75;;;19.70;99.80;;;;;;5032102;28;20053;-55
2023/09/13 11:20:34;;;;;;;9.88;2.63;;;19.80;99.70;;;;;;5032957;28;20500;-57
2023/09/13 11:23:01;;;;;;;8.20;2.83;;;19.80;99.60;;;;;;5032986;28;20053;-56
2023/09/13 11:25:28;;;;;;;7.85;2.35;;;19.90;99.60;;;;;;5032788;28;20038;-58
2023/09/13 11:27:57;;;;;;;6.22;2.15;;;20.10;99.20;;;;;;5032896;28;20103;-58
2023/09/13 11:30:24;;;;;;;4.40;1.92;;;20.20;98.70;;;;;;5031849;28;20132;-56
2023/09/13 11:32:51;;;;;;;6.65;1.90;;;20.20;98.70;;;;;;5032776;28;20377;-54
2023/09/13 11:35:18;;;;;;;6.93;2.33;;;20.20;98.80;;;;;;5034004;28;20045;-53
2023/09/13 11:37:45;;;;;;;7.10;2.42;;;20.30;98.00;;;;;;5036667;28;20128;-60
2023/09/13 11:40:13;;;;;;;8.00;2.38;;;20.30;98.70;;;;;;5036510;28;20041;-57
2023/09/13 11:42:41;;;;;;;4.97;2.20;;;20.30;98.10;;;;;;5036502;28;20041;-55
2023/09/13 11:45:30;;;;;;;5.65;2.30;;;20.30;98.30;;;;;;5036804;28;20128;-56
2023/09/13 11:48:02;;;;;;;5.28;2.40;;;20.30;98.20;;;;;;5036414;28;20037;-58
2023/09/13 11:50:29;;;;;;;7.75;2.42;;;20.40;98.20;;;;;;5036762;28;20054;-52
2023/09/13 11:53:21;;;;;;;7.05;2.15;;;20.50;97.90;;;;;;5035892;28;20045;-57
2023/09/13 11:55:50;;;;;;;7.57;2.40;;;20.70;97.90;;;;;;5036391;28;20083;-57
2023/09/13 11:58:36;;;;;;;8.43;2.20;;;20.70;97.30;;;;;;5031489;28;20108;-53
2023/09/13 12:01:24;;;;;;;6.88;2.38;;;20.70;97.70;;;;;;5036585;28;20049;-54
2023/09/13 12:03:55;;;;;;;8.65;2.10;;;20.90;97.40;;;;;;5035382;28;20045;-60
2023/09/13 12:06:28;;;;;;;5.63;2.55;;;20.90;97.20;;;;;;5036266;28;20049;-57
2023/09/13 12:08:59;;;;;;;7.35;2.30;;;21.00;97.40;;;;;;5036144;28;20041;-56
2023/09/13 12:11:30;;;;;;;7.32;2.28;;;21.00;97.30;;;;;;5035038;28;20057;-57
2023/09/13 12:13:58;;;;;;;6.95;2.28;;;21.00;97.00;;;;;;5028255;28;20069;-55
2023/09/13 12:16:42;;;;;;;7.22;2.25;;;20.70;97.50;;;;;;5030721;28;20041;-58
2023/09/13 12:19:09;;;;;;;10.52;2.20;;;20.60;97.60;;;;;;5035696;28;20095;-59
2023/09/13 12:21:36;;;;;;;6.93;2.28;;;20.60;97.70;;;;;;5035407;28;20041;-56
2023/09/13 12:24:03;;;;;;;7.70;2.22;;;20.50;97.30;;;;;;5035967;28;20045;-58
2023/09/13 12:26:30;;;;;;;6.25;2.53;;;20.40;97.40;;;;;;5035115;28;20045;-54
2023/09/13 12:28:56;;;;;;;5.47;2.10;;;20.50;97.40;;;;;;5035988;28;20046;-54
2023/09/13 12:31:24;;;;;;;6.88;2.30;;;20.50;97.40;;;;;;5035799;28;20120;-56
2023/09/13 12:33:51;;;;;;;7.20;2.10;;;20.50;97.30;;;;;;5035027;28;20038;-57
2023/09/13 12:36:18;;;;;;;6.55;2.17;;;20.40;97.60;;;;;;5035558;28;20448;-57
2023/09/13 12:38:45;;;;;;;4.88;2.10;;;20.40;97.60;;;;;;5034964;28;20046;-57
2023/09/13 12:41:12;;;;;;;7.60;2.33;;;20.50;97.50;;;;;;5035485;28;20041;-55
2023/09/13 12:43:39;;;;;;;8.27;2.20;;;20.50;97.20;;;;;;5035520;28;20041;-56
2023/09/13 12:46:06;;;;;;;6.00;2.08;;;20.60;97.20;;;;;;5034447;28;20128;-53
2023/09/13 12:48:33;;;;;;;6.38;2.50;;;20.60;97.10;;;;;;5034828;28;20528;-53